createdAt,value
2022-09-06T00:00:40.556Z,21.41
2022-09-06T00:03:42.181Z,21.41
2022-09-06T00:06:43.668Z,21.40
2022-09-06T00:09:45.185Z,21.44
2022-09-06T00:12:47.673Z,21.46
2022-09-06T00:15:49.169Z,21.47
2022-09-06T00:18:54.765Z,21.46
2022-09-06T00:21:56.209Z,21.46
2022-09-06T00:24:57.616Z,21.50
2022-09-06T00:28:01.428Z,21.51
2022-09-06T00:31:29.489Z,21.55
2022-09-06T00:34:31.443Z,21.57
2022-09-06T00:37:32.872Z,21.62
2022-09-06T00:40:35.550Z,21.63
2022-09-06T00:43:37.167Z,21.69
2022-09-06T00:46:42.051Z,21.68
2022-09-06T00:49:51.078Z,21.70
2022-09-06T00:52:52.780Z,21.72
2022-09-06T00:55:54.864Z,21.71
2022-09-06T00:58:56.291Z,21.66
2022-09-06T01:01:58.437Z,21.59
2022-09-06T01:05:00.388Z,21.59
2022-09-06T01:08:06.311Z,21.62
2022-09-06T01:11:26.019Z,21.67
2022-09-06T01:14:55.517Z,21.63
2022-09-06T01:17:59.893Z,21.62
2022-09-06T01:21:07.484Z,21.63
2022-09-06T01:24:31.861Z,21.62
2022-09-06T01:27:51.686Z,21.65
2022-09-06T01:31:26.678Z,21.61
2022-09-06T01:34:35.218Z,21.59
2022-09-06T01:37:37.005Z,21.83
2022-09-06T01:40:38.409Z,21.25
2022-09-06T01:43:43.895Z,21.18
2022-09-06T01:47:11.547Z,21.38
2022-09-06T01:50:43.945Z,21.44
2022-09-06T01:54:00.922Z,21.67
2022-09-06T01:57:13.639Z,21.65
2022-09-06T02:00:18.504Z,21.67
2022-09-06T02:03:35.004Z,21.71
2022-09-06T02:06:43.255Z,21.64
2022-09-06T02:09:49.814Z,21.67
2022-09-06T02:12:55.152Z,21.71
2022-09-06T02:16:03.639Z,21.71
2022-09-06T02:19:11.735Z,21.59
2022-09-06T02:22:18.585Z,21.51
2022-09-06T02:25:51.726Z,21.38
2022-09-06T02:28:53.453Z,21.01
2022-09-06T02:32:11.029Z,20.62
2022-09-06T02:35:14.934Z,20.35
2022-09-06T02:38:17.582Z,20.15
2022-09-06T02:41:22.618Z,20.27
2022-09-06T02:44:24.139Z,20.50
2022-09-06T02:47:25.557Z,20.58
2022-09-06T02:50:27.213Z,20.49
2022-09-06T02:53:28.629Z,20.37
2022-09-06T02:56:30.098Z,20.40
2022-09-06T02:59:32.362Z,20.42
2022-09-06T03:02:33.848Z,20.41
2022-09-06T03:05:35.492Z,20.42
2022-09-06T03:08:36.958Z,20.36
2022-09-06T03:11:38.490Z,20.36
2022-09-06T03:14:41.199Z,20.41
2022-09-06T03:17:43.604Z,20.37
2022-09-06T03:20:45.334Z,20.32
2022-09-06T03:23:46.822Z,20.32
2022-09-06T03:26:48.302Z,20.33
2022-09-06T03:29:49.828Z,20.37
2022-09-06T03:32:51.232Z,20.28
2022-09-06T03:35:55.499Z,20.17
2022-09-06T03:38:56.921Z,20.17
2022-09-06T03:41:58.348Z,20.15
2022-09-06T03:44:59.786Z,20.13
2022-09-06T03:48:01.213Z,20.15
2022-09-06T03:51:02.676Z,20.15
2022-09-06T03:54:04.262Z,20.15
2022-09-06T03:57:05.717Z,20.14
2022-09-06T04:00:07.914Z,20.11
2022-09-06T04:03:13.079Z,20.08
2022-09-06T04:06:14.571Z,20.11
2022-09-06T04:09:16.012Z,20.11
2022-09-06T04:12:17.486Z,20.10
2022-09-06T04:15:18.903Z,20.12
2022-09-06T04:18:20.960Z,20.02
2022-09-06T04:21:22.390Z,19.96
2022-09-06T04:24:23.804Z,19.85
2022-09-06T04:27:25.220Z,19.79
2022-09-06T04:30:26.726Z,19.67
2022-09-06T04:33:29.488Z,19.67
2022-09-06T04:36:30.950Z,19.61
2022-09-06T04:39:32.387Z,19.49
2022-09-06T04:42:33.871Z,19.45
2022-09-06T04:45:35.359Z,19.34
2022-09-06T04:48:36.827Z,19.27
2022-09-06T04:51:39.448Z,19.25
2022-09-06T04:54:41.270Z,19.26
2022-09-06T04:57:46.605Z,19.16
2022-09-06T05:00:49.954Z,19.11
2022-09-06T05:03:54.993Z,19.31
2022-09-06T05:07:02.940Z,19.03
2022-09-06T05:10:04.719Z,18.99
2022-09-06T05:13:06.167Z,18.89
2022-09-06T05:16:09.032Z,18.98
2022-09-06T05:19:10.712Z,19.08
2022-09-06T05:22:12.422Z,19.15
2022-09-06T05:25:13.882Z,19.17
2022-09-06T05:28:16.257Z,19.21
2022-09-06T05:31:32.032Z,19.08
2022-09-06T05:34:33.525Z,19.08
2022-09-06T05:37:34.959Z,19.15
2022-09-06T05:40:36.386Z,19.27
2022-09-06T05:43:37.790Z,19.36
2022-09-06T05:46:46.157Z,19.48
2022-09-06T05:49:47.627Z,19.60
2022-09-06T05:52:49.037Z,19.65
2022-09-06T05:55:50.454Z,19.68
2022-09-06T05:58:51.871Z,19.72
2022-09-06T06:01:54.106Z,19.73
2022-09-06T06:04:55.601Z,19.74
2022-09-06T06:07:58.846Z,19.75
2022-09-06T06:11:01.289Z,19.80
2022-09-06T06:14:04.214Z,19.84
2022-09-06T06:17:05.825Z,19.84
2022-09-06T06:20:07.877Z,19.87
2022-09-06T06:23:09.269Z,19.91
2022-09-06T06:26:12.269Z,19.92
2022-09-06T06:29:14.464Z,19.94
2022-09-06T06:32:15.986Z,19.94
2022-09-06T06:35:17.458Z,19.93
2022-09-06T06:38:18.877Z,19.92
2022-09-06T06:41:23.876Z,19.96
2022-09-06T06:44:26.621Z,20.02
2022-09-06T06:47:28.017Z,20.12
2022-09-06T06:50:29.425Z,20.32
2022-09-06T06:53:30.951Z,20.53
2022-09-06T06:56:37.903Z,20.67
2022-09-06T06:59:40.031Z,20.69
2022-09-06T07:02:41.455Z,20.76
2022-09-06T07:09:08.494Z,20.91
2022-09-06T07:12:10.051Z,20.98
2022-09-06T07:15:11.504Z,21.06
2022-09-06T07:18:16.049Z,21.07
2022-09-06T07:24:41.161Z,21.15
2022-09-06T07:27:47.141Z,21.36
2022-09-06T07:30:53.372Z,21.54
2022-09-06T07:33:55.687Z,21.62
2022-09-06T07:36:57.326Z,21.61
2022-09-06T07:39:58.806Z,21.58
2022-09-06T07:43:00.285Z,21.63
2022-09-06T07:46:08.198Z,21.71
2022-09-06T07:49:09.654Z,21.76
2022-09-06T07:55:32.578Z,21.77
2022-09-06T07:58:35.082Z,21.91
2022-09-06T08:01:40.074Z,22.01
2022-09-06T08:04:42.467Z,21.99
2022-09-06T08:07:43.872Z,22.04
2022-09-06T08:10:50.229Z,22.27
2022-09-06T08:13:54.707Z,22.70
2022-09-06T08:16:56.157Z,23.01
2022-09-06T08:19:57.606Z,23.22
2022-09-06T08:22:59.023Z,23.17
2022-09-06T08:26:00.842Z,23.55
2022-09-06T08:29:05.830Z,23.68
2022-09-06T08:32:07.274Z,23.73
2022-09-06T08:35:09.300Z,23.86
2022-09-06T08:38:10.710Z,23.97
2022-09-06T08:41:24.663Z,24.28
2022-09-06T08:44:58.488Z,24.37
2022-09-06T08:48:00.293Z,24.28
2022-09-06T08:51:43.650Z,24.48
2022-09-06T08:55:13.072Z,24.54
2022-09-06T08:58:39.144Z,24.44
2022-09-06T09:02:15.156Z,24.38
2022-09-06T09:05:24.631Z,24.12
2022-09-06T09:08:56.820Z,24.51
2022-09-06T09:12:00.539Z,24.97
2022-09-06T09:15:08.724Z,25.22
2022-09-06T09:18:10.204Z,25.37
2022-09-06T09:21:12.040Z,25.50
2022-09-06T09:24:15.625Z,25.58
2022-09-06T09:27:20.083Z,25.67
2022-09-06T09:33:42.907Z,25.47
2022-09-06T09:40:12.804Z,25.85
2022-09-06T09:43:20.268Z,25.64
2022-09-06T09:46:24.516Z,26.14
2022-09-06T09:49:26.004Z,26.42
2022-09-06T09:52:30.838Z,26.60
2022-09-06T09:55:32.484Z,26.89
2022-09-06T09:58:36.657Z,26.97
2022-09-06T10:01:38.656Z,27.00
2022-09-06T10:04:47.029Z,26.81
2022-09-06T10:07:50.912Z,26.91
2022-09-06T10:10:52.662Z,26.88
2022-09-06T10:14:10.140Z,27.12
2022-09-06T10:17:29.652Z,26.95
2022-09-06T10:20:37.611Z,27.02
2022-09-06T10:24:28.459Z,27.11
2022-09-06T10:27:30.989Z,27.29
2022-09-06T10:30:36.290Z,27.35
2022-09-06T10:34:02.921Z,27.33
2022-09-06T10:37:19.719Z,27.43
2022-09-06T10:40:55.539Z,27.57
2022-09-06T10:44:15.221Z,27.71
2022-09-06T10:47:18.086Z,27.66
2022-09-06T10:50:19.917Z,27.66
2022-09-06T10:53:21.245Z,27.84
2022-09-06T10:56:37.043Z,28.06
2022-09-06T10:59:51.519Z,27.97
2022-09-06T11:06:36.711Z,28.01
2022-09-06T11:09:43.448Z,27.99
2022-09-06T11:12:53.919Z,28.14
2022-09-06T11:16:17.991Z,28.19
2022-09-06T11:19:28.933Z,28.21
2022-09-06T11:22:50.100Z,28.09
2022-09-06T11:25:54.237Z,28.16
2022-09-06T11:29:01.362Z,28.35
2022-09-06T11:32:24.026Z,28.63
2022-09-06T11:35:28.042Z,28.74
2022-09-06T11:38:29.517Z,28.73
2022-09-06T11:41:40.624Z,28.84
2022-09-06T11:45:12.708Z,28.94
2022-09-06T11:48:35.063Z,28.99
2022-09-06T11:51:42.058Z,29.08
2022-09-06T11:54:47.218Z,29.43
2022-09-06T11:57:55.054Z,29.48
2022-09-06T12:01:16.670Z,29.37
2022-09-06T12:04:18.128Z,29.43
2022-09-06T12:07:19.594Z,29.61
2022-09-06T12:10:30.082Z,29.84
2022-09-06T12:13:40.033Z,29.70
2022-09-06T12:16:56.653Z,29.56
2022-09-06T12:20:07.274Z,29.65
2022-09-06T12:23:08.920Z,29.55
2022-09-06T12:26:11.975Z,29.62
2022-09-06T12:29:14.153Z,29.54
2022-09-06T12:32:22.145Z,29.43
2022-09-06T12:39:09.630Z,29.48
2022-09-06T12:42:13.084Z,29.81
2022-09-06T12:45:15.349Z,29.91
2022-09-06T12:48:27.382Z,30.00
2022-09-06T12:51:29.146Z,30.12
2022-09-06T12:54:30.558Z,30.08
2022-09-06T12:57:32.072Z,29.91
2022-09-06T13:00:51.262Z,30.02
2022-09-06T13:04:02.820Z,30.17
2022-09-06T13:07:05.886Z,30.12
2022-09-06T13:10:08.758Z,30.25
2022-09-06T13:13:11.419Z,30.35
2022-09-06T13:16:19.322Z,30.56
2022-09-06T13:19:35.235Z,30.48
2022-09-06T13:22:42.506Z,30.34
2022-09-06T13:25:52.040Z,30.48
2022-09-06T13:28:53.448Z,30.44
2022-09-06T13:31:57.011Z,30.42
2022-09-06T13:35:00.127Z,30.42
2022-09-06T13:38:21.624Z,30.73
2022-09-06T13:41:25.872Z,30.85
2022-09-06T13:44:32.279Z,30.92
2022-09-06T13:47:33.709Z,31.09
2022-09-06T13:50:35.331Z,31.13
2022-09-06T13:53:37.065Z,31.30
2022-09-06T13:56:39.253Z,31.27
2022-09-06T13:59:42.067Z,31.44
2022-09-06T14:02:44.173Z,31.63
2022-09-06T14:05:45.745Z,31.78
2022-09-06T14:09:06.550Z,31.55
2022-09-06T14:12:09.893Z,31.82
2022-09-06T14:15:11.370Z,31.88
2022-09-06T14:18:14.533Z,31.70
2022-09-06T14:21:16.488Z,31.82
2022-09-06T14:24:18.020Z,32.13
2022-09-06T14:27:19.532Z,32.05
2022-09-06T14:30:21.053Z,31.55
2022-09-06T14:33:22.538Z,31.68
2022-09-06T14:36:26.956Z,31.75
2022-09-06T14:39:28.520Z,31.61
2022-09-06T14:42:30.652Z,31.46
2022-09-06T14:45:35.228Z,31.64
2022-09-06T14:48:40.322Z,31.78
2022-09-06T14:51:43.535Z,32.05
2022-09-06T14:54:45.002Z,32.11
2022-09-06T14:57:47.077Z,32.08
2022-09-06T15:00:50.131Z,32.17
2022-09-06T15:03:55.551Z,32.22
2022-09-06T15:06:57.038Z,31.93
2022-09-06T15:09:58.473Z,31.74
2022-09-06T15:12:59.938Z,31.55
2022-09-06T15:16:01.461Z,31.55
2022-09-06T15:19:03.756Z,31.91
2022-09-06T15:22:06.292Z,32.15
2022-09-06T15:25:08.115Z,31.47
2022-09-06T15:28:09.538Z,31.78
2022-09-06T15:31:12.190Z,32.13
2022-09-06T15:34:14.566Z,31.50
2022-09-06T15:37:16.005Z,31.20
2022-09-06T15:40:17.623Z,31.05
2022-09-06T15:43:19.914Z,31.46
2022-09-06T15:46:41.640Z,31.66
2022-09-06T15:49:43.112Z,31.76
2022-09-06T15:52:44.602Z,31.90
2022-09-06T15:55:58.014Z,31.69
2022-09-06T15:58:59.592Z,31.49
2022-09-06T16:02:01.119Z,31.25
2022-09-06T16:05:02.548Z,31.18
2022-09-06T16:08:03.965Z,30.95
2022-09-06T16:11:11.708Z,30.77
2022-09-06T16:14:15.696Z,30.67
2022-09-06T16:17:17.106Z,30.71
2022-09-06T16:20:18.526Z,30.61
2022-09-06T16:23:20.428Z,30.57
2022-09-06T16:26:24.433Z,30.53
2022-09-06T16:29:26.192Z,30.49
2022-09-06T16:32:27.606Z,30.49
2022-09-06T16:35:29.093Z,30.27
2022-09-06T16:38:32.089Z,30.22
2022-09-06T16:41:41.163Z,30.13
2022-09-06T16:44:42.717Z,30.15
2022-09-06T16:47:45.034Z,30.14
2022-09-06T16:50:46.491Z,29.97
2022-09-06T16:53:49.170Z,29.89
2022-09-06T16:56:50.579Z,29.79
2022-09-06T16:59:52.196Z,29.70
2022-09-06T17:02:53.682Z,29.62
2022-09-06T17:05:55.116Z,29.59
2022-09-06T17:09:00.529Z,29.61
2022-09-06T17:12:02.569Z,29.71
2022-09-06T17:15:04.488Z,29.73
2022-09-06T17:18:05.940Z,29.70
2022-09-06T17:21:08.109Z,29.69
2022-09-06T17:24:09.628Z,29.55
2022-09-06T17:27:11.152Z,29.47
2022-09-06T17:30:12.670Z,29.43
2022-09-06T17:33:16.890Z,29.30
2022-09-06T17:36:24.322Z,29.20
2022-09-06T17:39:25.775Z,29.07
2022-09-06T17:42:27.231Z,28.97
2022-09-06T17:45:29.226Z,28.87
2022-09-06T17:48:30.750Z,28.79
2022-09-06T17:51:32.994Z,28.67
2022-09-06T17:54:34.462Z,28.63
2022-09-06T17:57:36.137Z,28.56
2022-09-06T18:00:40.260Z,28.35
2022-09-06T18:03:42.988Z,28.09
2022-09-06T18:06:46.360Z,27.87
2022-09-06T18:09:47.832Z,27.82
2022-09-06T18:12:50.189Z,27.83
2022-09-06T18:15:51.604Z,27.84
2022-09-06T18:18:55.983Z,27.78
2022-09-06T18:21:57.629Z,27.45
2022-09-06T18:24:59.041Z,27.13
2022-09-06T18:28:00.450Z,26.98
2022-09-06T18:31:07.827Z,26.89
2022-09-06T18:34:09.998Z,26.85
2022-09-06T18:37:12.099Z,26.72
2022-09-06T18:40:13.536Z,26.66
2022-09-06T18:43:15.293Z,26.48
2022-09-06T18:46:16.770Z,26.51
2022-09-06T18:49:18.357Z,26.52
2022-09-06T18:52:20.657Z,26.56
2022-09-06T18:55:22.112Z,26.52
2022-09-06T18:58:23.699Z,26.52
2022-09-06T19:01:29.037Z,26.46
2022-09-06T19:04:31.006Z,26.42
2022-09-06T19:07:32.532Z,26.38
2022-09-06T19:10:33.964Z,26.24
2022-09-06T19:13:37.804Z,25.95
2022-09-06T19:16:39.327Z,25.72
2022-09-06T19:19:40.844Z,25.65
2022-09-06T19:22:42.288Z,25.64
2022-09-06T19:25:44.035Z,25.57
2022-09-06T19:28:54.680Z,25.42
2022-09-06T19:31:56.165Z,25.37
2022-09-06T19:34:57.746Z,25.38
2022-09-06T19:37:59.145Z,25.43
2022-09-06T19:41:02.469Z,25.46
2022-09-06T19:44:09.204Z,25.47
2022-09-06T19:47:10.850Z,25.43
2022-09-06T19:50:12.464Z,25.42
2022-09-06T19:53:13.963Z,25.37
2022-09-06T19:56:18.379Z,25.26
2022-09-06T19:59:19.813Z,25.18
2022-09-06T20:02:22.548Z,25.16
2022-09-06T20:05:24.210Z,25.16
2022-09-06T20:08:26.405Z,25.03
2022-09-06T20:11:30.512Z,25.02
2022-09-06T20:14:32.127Z,25.01
2022-09-06T20:17:34.630Z,25.02
2022-09-06T20:20:36.222Z,25.02
2022-09-06T20:23:37.753Z,25.02
2022-09-06T20:26:40.273Z,24.98
2022-09-06T20:29:41.755Z,24.99
2022-09-06T20:32:43.189Z,24.86
2022-09-06T20:35:53.736Z,24.81
2022-09-06T20:38:55.342Z,24.69
2022-09-06T20:41:56.910Z,24.58
2022-09-06T20:44:58.426Z,24.45
2022-09-06T20:47:59.928Z,24.35
2022-09-06T20:51:03.410Z,24.28
2022-09-06T20:54:05.419Z,24.27
2022-09-06T20:57:07.041Z,24.26
2022-09-06T21:00:12.524Z,24.22
2022-09-06T21:03:15.775Z,24.24
2022-09-06T21:06:18.220Z,24.25
2022-09-06T21:09:19.709Z,24.17
2022-09-06T21:12:21.142Z,24.14
2022-09-06T21:15:22.560Z,24.11
2022-09-06T21:18:26.340Z,23.97
2022-09-06T21:21:29.580Z,23.91
2022-09-06T21:24:31.068Z,23.88
2022-09-06T21:27:32.521Z,23.83
2022-09-06T21:30:33.982Z,23.82
2022-09-06T21:33:37.755Z,23.79
2022-09-06T21:36:39.682Z,23.74
2022-09-06T21:39:41.263Z,23.63
2022-09-06T21:42:42.784Z,23.61
2022-09-06T21:45:44.330Z,23.57
2022-09-06T21:48:48.331Z,23.50
2022-09-06T21:51:49.728Z,23.53
2022-09-06T21:54:51.142Z,23.45
2022-09-06T21:57:52.590Z,23.38
2022-09-06T22:00:59.057Z,23.33
2022-09-06T22:04:00.648Z,23.28
2022-09-06T22:07:02.052Z,23.26
2022-09-06T22:10:03.973Z,23.23
2022-09-06T22:13:05.410Z,23.13
2022-09-06T22:16:08.340Z,23.11
2022-09-06T22:19:10.236Z,23.12
2022-09-06T22:22:11.640Z,23.18
2022-09-06T22:25:13.757Z,23.11
2022-09-06T22:28:15.219Z,23.05
2022-09-06T22:31:16.754Z,23.03
2022-09-06T22:34:18.298Z,22.98
2022-09-06T22:37:20.128Z,22.92
2022-09-06T22:40:21.542Z,22.88
2022-09-06T22:43:23.376Z,22.91
2022-09-06T22:46:24.876Z,22.93
2022-09-06T22:49:26.333Z,22.87
2022-09-06T22:52:27.924Z,22.79
2022-09-06T22:55:29.730Z,22.78
2022-09-06T22:58:31.368Z,22.76
2022-09-06T23:01:38.619Z,22.80
2022-09-06T23:04:40.068Z,22.84
2022-09-06T23:07:43.311Z,22.83
2022-09-06T23:10:44.740Z,22.79
2022-09-06T23:13:47.038Z,22.78
2022-09-06T23:16:48.480Z,22.78
2022-09-06T23:19:49.947Z,22.73
2022-09-06T23:22:51.357Z,22.68
2022-09-06T23:25:54.096Z,22.70
2022-09-06T23:28:58.672Z,22.68
2022-09-06T23:32:00.286Z,22.68
2022-09-06T23:35:01.750Z,22.64
2022-09-06T23:38:03.204Z,22.57
2022-09-06T23:41:05.640Z,22.53
2022-09-06T23:44:07.072Z,22.51
2022-09-06T23:47:08.499Z,22.49
2022-09-06T23:50:10.721Z,22.50
2022-09-06T23:53:14.078Z,22.49
2022-09-06T23:56:15.898Z,22.47
2022-09-06T23:59:17.314Z,22.46
